Time;durP1;ratioP1;P1;durP2;ratioP2;P2;SDS_P1;SDS_P2;PMS_P1;PMS_P2;Temp;Humidity;BMP_temperature;BMP_pressure;BME280_temperature;BME280_humidity;BME280_pressure;Samples;Min_cycle;Max_cycle;Signal;HPM_P1;HPM_P2
2023/04/09 00:00:15;;;;;;;22.07;19.77;;;;;;;5.63;100.00;92966.34;5108915;28;20224;-73
2023/04/09 00:02:41;;;;;;;22.13;19.73;;;;;;;5.57;100.00;92964.69;5110780;28;20217;-74
2023/04/09 00:05:07;;;;;;;22.37;18.53;;;;;;;5.36;100.00;92939.56;5110132;28;20247;-75
2023/04/09 00:07:32;;;;;;;27.67;19.57;;;;;;;5.42;100.00;92948.19;5109646;28;20180;-73
2023/04/09 00:09:58;;;;;;;23.27;19.30;;;;;;;5.18;100.00;92895.06;5113198;28;20245;-74
2023/04/09 00:12:23;;;;;;;23.20;20.80;;;;;;;5.62;100.00;92957.00;5111067;28;20210;-74
2023/04/09 00:14:49;;;;;;;23.20;20.73;;;;;;;5.54;100.00;92962.59;5112083;28;20227;-74
2023/04/09 00:17:14;;;;;;;26.63;21.10;;;;;;;5.67;100.00;92975.22;5109311;28;20203;-73
2023/04/09 00:19:40;;;;;;;23.43;20.40;;;;;;;5.74;100.00;92960.28;5109749;28;21032;-74
2023/04/09 00:22:05;;;;;;;29.03;21.97;;;;;;;5.83;100.00;92973.63;5110069;28;20195;-74
2023/04/09 00:24:30;;;;;;;26.93;20.77;;;;;;;6.08;100.00;92981.72;5108966;28;20195;-74
2023/04/09 00:26:56;;;;;;;26.40;21.87;;;;;;;6.11;100.00;92955.31;5110583;28;20191;-74
2023/04/09 00:29:21;;;;;;;23.63;21.20;;;;;;;6.32;100.00;92977.81;5110144;28;20247;-75
2023/04/09 00:31:46;;;;;;;19.80;17.70;;;;;;;6.32;100.00;92977.81;5109733;28;20168;-74
2023/04/09 00:34:12;;;;;;;22.67;19.23;;;;;;;6.33;100.00;92985.34;5109857;28;20188;-74
2023/04/09 00:36:38;;;;;;;23.33;20.50;;;;;;;6.25;100.00;92987.59;5108874;28;20234;-74
2023/04/09 00:39:03;;;;;;;26.70;20.40;;;;;;;6.18;100.00;92963.66;5107686;28;20192;-74
2023/04/09 00:41:28;;;;;;;25.63;20.77;;;;;;;6.21;100.00;92982.09;5108482;28;20224;-74
2023/04/09 00:43:56;;;;;;;22.73;20.13;;;;;;;5.87;100.00;92941.81;5109775;28;20220;-74
2023/04/09 00:46:21;;;;;;;23.97;19.70;;;;;;;6.14;100.00;92978.13;5108745;28;20231;-74
2023/04/09 00:48:46;;;;;;;24.43;20.57;;;;;;;6.04;100.00;92971.03;5111114;28;20184;-74
2023/04/09 00:51:12;;;;;;;23.07;20.60;;;;;;;6.10;100.00;92980.44;5111315;28;20291;-74
2023/04/09 00:53:37;;;;;;;23.33;19.70;;;;;;;5.99;100.00;92977.97;5109894;28;20192;-73
2023/04/09 00:56:03;;;;;;;22.73;19.47;;;;;;;6.02;100.00;92985.25;5108363;28;20245;-74
2023/04/09 00:58:29;;;;;;;23.63;20.13;;;;;;;5.92;100.00;92977.34;5108806;28;20176;-74
2023/04/09 01:00:54;;;;;;;21.43;19.13;;;;;;;5.70;100.00;92953.22;5109500;28;20285;-74
2023/04/09 01:03:20;;;;;;;24.47;20.83;;;;;;;5.78;100.00;92982.09;5109342;28;20196;-74
2023/04/09 01:06:10;;;;;;;21.10;19.10;;;;;;;5.40;100.00;92984.66;5108671;28;20248;-74
2023/04/09 01:08:46;;;;;;;19.60;17.57;;;;;;;5.13;100.00;92932.00;5108933;28;20391;-73
2023/04/09 01:11:26;;;;;;;20.83;18.67;;;;;;;5.51;100.00;92983.03;5109070;28;20229;-74
2023/04/09 01:14:07;;;;;;;19.20;17.17;;;;;;;5.39;100.00;92988.28;5111082;28;20192;-73
2023/04/09 01:16:35;;;;;;;18.93;17.03;;;;;;;5.10;100.00;92953.19;5111369;28;20227;-74
2023/04/09 01:19:36;;;;;;;18.70;16.93;;;;;;;5.29;100.00;92987.38;5112335;28;20206;-74
2023/04/09 01:22:07;;;;;;;19.90;17.87;;;;;;;5.17;100.00;92958.97;5111050;28;20220;-74
2023/04/09 01:24:55;;;;;;;19.23;17.23;;;;;;;4.95;100.00;92951.16;5111746;28;20208;-74
2023/04/09 01:27:22;;;;;;;21.20;19.10;;;;;;;5.21;100.00;92982.59;5112004;28;20191;-74
2023/04/09 01:29:51;;;;;;;19.63;17.37;;;;;;;5.20;100.00;92988.78;5111537;28;20231;-74
2023/04/09 01:32:19;;;;;;;19.33;17.53;;;;;;;5.14;100.00;92974.22;5113671;28;20206;-74
2023/04/09 01:34:47;;;;;;;19.67;17.07;;;;;;;4.93;100.00;92948.00;5112443;28;20224;-74
2023/04/09 01:37:14;;;;;;;19.97;17.93;;;;;;;5.22;100.00;92991.91;5112179;28;20214;-74
2023/04/09 01:39:41;;;;;;;17.80;16.10;;;;;;;5.24;100.00;92989.88;5110923;27;20257;-74
2023/04/09 01:42:10;;;;;;;19.57;17.63;;;;;;;5.04;100.00;92974.03;5112041;28;20210;-74
2023/04/09 01:44:39;;;;;;;19.77;17.67;;;;;;;5.04;100.00;92984.38;5110846;27;20192;-74
2023/04/09 01:47:04;;;;;;;19.87;17.80;;;;;;;5.06;100.00;92982.38;5112252;28;20195;-74
2023/04/09 01:49:30;;;;;;;19.23;17.33;;;;;;;4.90;100.00;92974.34;5111797;28;20180;-74
2023/04/09 01:51:56;;;;;;;20.20;18.10;;;;;;;4.96;100.00;92982.97;5110682;28;20195;-74
2023/04/09 01:54:21;;;;;;;19.00;17.10;;;;;;;4.63;100.00;92967.44;5112893;28;20188;-74
2023/04/09 01:56:47;;;;;;;18.73;16.93;;;;;;;4.74;100.00;92988.06;5111981;28;20218;-73
2023/04/09 01:59:13;;;;;;;18.27;16.50;;;;;;;4.65;100.00;93001.59;5111984;28;20192;-73
2023/04/09 02:01:45;;;;;;;18.63;16.70;;;;;;;4.50;100.00;92994.34;5111345;27;20239;-74
2023/04/09 02:04:31;;;;;;;19.13;17.10;;;;;;;4.51;100.00;92984.81;5110358;28;20246;-73
2023/04/09 02:07:28;;;;;;;19.20;17.37;;;;;;;4.36;100.00;92982.75;5111379;28;20207;-74
2023/04/09 02:09:54;;;;;;;18.10;16.43;;;;;;;4.51;100.00;92990.00;5106540;28;20279;-74
2023/04/09 02:12:20;;;;;;;18.37;16.53;;;;;;;4.51;100.00;92990.75;5110536;28;21362;-74
2023/04/09 02:14:50;;;;;;;18.57;16.80;;;;;;;4.49;100.00;92982.47;5112245;28;20250;-74
2023/04/09 02:17:15;;;;;;;18.03;16.23;;;;;;;4.46;100.00;92979.56;5111639;28;20237;-73
2023/04/09 02:19:43;;;;;;;17.13;14.83;;;;;;;4.49;100.00;92987.63;5110797;28;20231;-74
2023/04/09 02:22:09;;;;;;;18.83;16.83;;;;;;;4.34;100.00;92979.59;5111215;28;20244;-74
2023/04/09 02:24:35;;;;;;;18.57;16.67;;;;;;;4.39;100.00;92987.44;5110074;28;20180;-75
2023/04/09 02:27:01;;;;;;;19.90;17.77;;;;;;;4.35;100.00;92965.69;5111900;28;20227;-75
2023/04/09 02:29:27;;;;;;;19.50;17.57;;;;;;;3.99;100.00;92909.22;5111495;28;20200;-74
2023/04/09 02:31:52;;;;;;;18.77;16.77;;;;;;;4.39;100.00;92984.09;5111042;28;20196;-74
2023/04/09 02:34:18;;;;;;;19.57;17.70;;;;;;;4.39;100.00;92981.50;5111520;27;20191;-76
2023/04/09 02:36:44;;;;;;;20.23;18.23;;;;;;;4.39;100.00;92977.09;5110911;28;20302;-73
2023/04/09 02:39:09;;;;;;;19.07;17.13;;;;;;;4.22;100.00;92967.72;5109934;28;20184;-74
2023/04/09 02:41:34;;;;;;;19.50;17.57;;;;;;;4.21;100.00;92973.94;5110362;28;20216;-73
2023/04/09 02:44:00;;;;;;;18.53;16.67;;;;;;;4.30;100.00;92969.94;5110981;28;20184;-75
2023/04/09 02:46:25;;;;;;;20.07;18.20;;;;;;;4.08;100.00;92950.94;5112242;27;20823;-75
2023/04/09 02:48:50;;;;;;;18.47;16.77;;;;;;;4.36;100.00;92982.75;5113257;28;20192;-74
2023/04/09 02:51:16;;;;;;;18.63;16.83;;;;;;;4.44;100.00;92974.63;5110002;28;20224;-74
2023/04/09 02:53:41;;;;;;;18.47;16.67;;;;;;;4.43;100.00;92972.25;5110661;28;20197;-74
2023/04/09 02:56:07;;;;;;;19.07;17.17;;;;;;;4.25;100.00;92952.56;5110213;27;20294;-70
2023/04/09 02:58:32;;;;;;;17.97;15.27;;;;;;;4.24;100.00;92953.59;5110924;28;20175;-71
2023/04/09 03:00:57;;;;;;;18.17;16.10;;;;;;;4.31;100.00;92959.38;5109354;28;20224;-70
2023/04/09 03:03:23;;;;;;;17.40;15.73;;;;;;;4.35;100.00;92970.06;5110156;28;20200;-71
2023/04/09 03:05:48;;;;;;;19.83;17.73;;;;;;;4.15;100.00;92943.84;5109931;27;20306;-72
2023/04/09 03:08:14;;;;;;;19.87;18.07;;;;;;;3.98;100.00;92946.41;5111150;28;20227;-72
2023/04/09 03:10:39;;;;;;;19.53;17.63;;;;;;;4.06;100.00;92961.50;5109758;27;20271;-72
2023/04/09 03:13:04;;;;;;;17.63;15.97;;;;;;;4.19;100.00;92974.16;5111629;28;20203;-71
2023/04/09 03:15:30;;;;;;;18.37;16.33;;;;;;;4.13;100.00;92951.03;5109694;28;20212;-72
2023/04/09 03:17:55;;;;;;;18.50;16.80;;;;;;;4.04;100.00;92945.47;5111539;28;20196;-72
2023/04/09 03:20:20;;;;;;;19.63;17.23;;;;;;;4.09;100.00;92955.91;5109735;27;20232;-72
2023/04/09 03:22:46;;;;;;;16.23;14.63;;;;;;;4.22;100.00;92963.34;5110393;28;20199;-72
2023/04/09 03:25:11;;;;;;;17.97;16.13;;;;;;;4.13;100.00;92964.75;5110159;28;20231;-72
2023/04/09 03:27:36;;;;;;;18.67;16.80;;;;;;;4.04;100.00;92953.22;5107443;28;20200;-71
2023/04/09 03:30:02;;;;;;;19.97;17.97;;;;;;;4.12;100.00;92950.28;5109759;28;20255;-72
2023/04/09 03:32:28;;;;;;;19.90;18.00;;;;;;;4.02;100.00;92970.75;5109909;28;20213;-73
2023/04/09 03:34:53;;;;;;;19.70;17.67;;;;;;;4.05;100.00;92949.63;5109397;28;20228;-72
2023/04/09 03:37:18;;;;;;;18.63;16.83;;;;;;;3.50;100.00;92885.81;5109445;28;20208;-72
2023/04/09 03:39:44;;;;;;;19.73;16.47;;;;;;;3.97;100.00;92964.72;5109633;28;20242;-71
2023/04/09 03:42:09;;;;;;;33.13;22.80;;;;;;;3.70;100.00;92893.94;5108912;28;20200;-72
2023/04/09 03:44:35;;;;;;;33.73;22.90;;;;;;;4.08;100.00;92956.09;5110091;27;20247;-71
2023/04/09 03:47:00;;;;;;;22.47;20.03;;;;;;;4.07;100.00;92975.22;5111555;28;20176;-71
2023/04/09 03:49:26;;;;;;;23.97;20.30;;;;;;;4.05;100.00;92970.28;5109262;28;20187;-72
2023/04/09 03:51:51;;;;;;;20.90;16.33;;;;;;;4.07;100.00;92973.44;5110441;28;20188;-71
2023/04/09 03:54:16;;;;;;;19.70;17.23;;;;;;;4.08;100.00;92974.19;5109266;28;20219;-71
2023/04/09 03:56:42;;;;;;;22.30;17.47;;;;;;;4.06;100.00;92971.84;5109274;27;20231;-71
2023/04/09 03:59:07;;;;;;;33.27;22.97;;;;;;;3.84;100.00;92914.09;5109333;28;20183;-73
2023/04/09 04:01:33;;;;;;;24.17;20.10;;;;;;;4.27;100.00;92975.59;5109292;28;20234;-72
2023/04/09 04:03:59;;;;;;;20.33;18.13;;;;;;;4.27;100.00;92973.78;5107908;28;20194;-71
2023/04/09 04:06:24;;;;;;;18.43;16.63;;;;;;;4.26;100.00;92985.16;5108259;28;20243;-72
2023/04/09 04:08:50;;;;;;;19.10;17.03;;;;;;;4.32;100.00;92981.66;5109398;28;20202;-71
2023/04/09 04:11:16;;;;;;;21.43;17.07;;;;;;;3.94;100.00;92900.59;5107978;27;20231;-71
2023/04/09 04:13:41;;;;;;;19.30;17.33;;;;;;;4.51;100.00;92983.00;5109151;28;20192;-72
2023/04/09 04:16:08;;;;;;;21.57;19.27;;;;;;;4.58;100.00;92977.69;5108792;27;20279;-72
2023/04/09 04:18:34;;;;;;;19.53;17.53;;;;;;;4.69;100.00;92982.81;5110097;28;20187;-72
2023/04/09 04:20:59;;;;;;;21.90;19.53;;;;;;;4.80;100.00;92973.41;5108594;28;20228;-72
2023/04/09 04:23:24;;;;;;;21.73;19.43;;;;;;;4.85;100.00;92971.69;5109434;28;20187;-72
2023/04/09 04:25:51;;;;;;;21.70;19.07;;;;;;;4.80;100.00;92958.69;5096708;28;20243;-70
2023/04/09 04:28:17;;;;;;;19.60;17.73;;;;;;;5.09;100.00;92976.72;5088224;28;20837;-72
2023/04/09 04:30:43;;;;;;;21.30;18.97;;;;;;;5.22;100.00;92987.53;5088523;28;20263;-71
2023/04/09 04:33:08;;;;;;;22.70;18.97;;;;;;;5.43;100.00;92988.59;5088743;28;20176;-72
2023/04/09 04:35:33;;;;;;;19.33;17.33;;;;;;;5.57;100.00;92985.41;5087725;28;20250;-71
2023/04/09 04:38:00;;;;;;;21.63;19.43;;;;;;;5.69;100.00;92967.19;5089311;28;20199;-72
2023/04/09 04:40:25;;;;;;;23.00;20.60;;;;;;;5.92;100.00;92985.13;5098134;28;20224;-71
2023/04/09 04:42:51;;;;;;;20.63;18.53;;;;;;;5.66;100.00;92983.22;5110711;28;20247;-71
2023/04/09 04:45:16;;;;;;;21.50;19.20;;;;;;;5.87;100.00;92985.06;5110326;28;20257;-71
2023/04/09 04:47:41;;;;;;;21.80;19.60;;;;;;;5.92;100.00;92983.31;5113283;28;20222;-72
2023/04/09 04:50:08;;;;;;;21.90;19.60;;;;;;;6.21;100.00;92991.72;5114539;28;20235;-70
2023/04/09 04:52:33;;;;;;;20.90;18.63;;;;;;;6.22;100.00;92988.88;5113069;28;20180;-72
2023/04/09 04:54:58;;;;;;;20.47;18.33;;;;;;;6.18;100.00;92940.31;5113233;28;20235;-72
2023/04/09 04:57:24;;;;;;;22.10;18.30;;;;;;;6.87;98.70;92990.53;5113126;28;20239;-72
2023/04/09 04:59:49;;;;;;;22.10;19.50;;;;;;;7.24;97.35;92994.75;5112641;28;20241;-71
2023/04/09 05:02:15;;;;;;;20.97;18.87;;;;;;;7.03;95.46;92985.25;5113638;28;20220;-70
2023/04/09 05:04:40;;;;;;;20.97;18.80;;;;;;;7.24;96.38;92997.34;5113269;28;20230;-70
2023/04/09 05:07:05;;;;;;;22.37;20.00;;;;;;;7.32;95.72;92970.94;5113184;28;20187;-71
2023/04/09 05:09:31;;;;;;;21.93;19.10;;;;;;;7.56;94.33;92981.75;5112359;28;20196;-71
2023/04/09 05:11:56;;;;;;;21.40;19.17;;;;;;;7.92;92.19;92984.25;5114410;28;20191;-71
2023/04/09 05:14:22;;;;;;;21.07;18.87;;;;;;;8.02;89.52;93005.13;5112029;28;20192;-72
2023/04/09 05:16:48;;;;;;;21.20;19.07;;;;;;;8.17;88.34;93002.59;5114525;28;20285;-71
2023/04/09 05:19:13;;;;;;;22.60;20.20;;;;;;;8.30;88.60;92990.97;5112764;28;20210;-71
2023/04/09 05:21:39;;;;;;;22.93;20.53;;;;;;;8.45;87.95;92983.19;5112958;28;20220;-71
2023/04/09 05:24:05;;;;;;;23.17;20.07;;;;;;;8.33;89.90;92981.88;5111994;28;20207;-72
2023/04/09 05:26:30;;;;;;;26.30;21.30;;;;;;;8.48;90.64;93006.13;5112195;28;20271;-71
2023/04/09 05:28:55;;;;;;;25.33;20.97;;;;;;;8.42;91.03;93006.38;5112959;28;20194;-71
2023/04/09 05:31:21;;;;;;;22.57;20.17;;;;;;;8.43;91.78;92987.91;5111299;28;20228;-71
2023/04/09 05:33:46;;;;;;;24.80;22.03;;;;;;;8.74;91.84;92996.56;5112205;28;20196;-70
2023/04/09 05:36:16;;;;;;;23.43;20.27;;;;;;;8.99;90.08;93009.63;5112934;28;20291;-70
2023/04/09 05:38:42;;;;;;;23.63;21.03;;;;;;;9.13;87.82;93002.84;5112647;28;20184;-70
2023/04/09 05:41:08;;;;;;;23.23;20.77;;;;;;;8.94;89.10;92999.97;5110793;28;20220;-71
2023/04/09 05:43:33;;;;;;;25.70;20.67;;;;;;;8.66;90.38;93007.47;5112242;28;20207;-70
2023/04/09 05:45:58;;;;;;;26.67;22.33;;;;;;;8.40;92.10;93011.03;5111810;28;20224;-71
2023/04/09 05:48:24;;;;;;;24.13;21.60;;;;;;;8.44;92.14;93007.66;5112815;28;20206;-70
2023/04/09 05:50:53;;;;;;;24.63;20.07;;;;;;;8.35;92.41;93019.59;5111492;27;20208;-73
2023/04/09 05:53:19;;;;;;;21.23;19.03;;;;;;;8.56;91.16;93004.84;5112131;28;20192;-77
2023/04/09 05:55:45;;;;;;;25.63;21.97;;;;;;;8.64;90.29;93001.75;5112906;27;20211;-69
2023/04/09 05:58:12;;;;;;;26.27;21.87;;;;;;;8.89;89.54;93017.41;5111799;28;20211;-70
2023/04/09 06:00:37;;;;;;;28.00;20.43;;;;;;;8.89;88.82;93020.00;5110769;27;20285;-70
2023/04/09 06:03:03;;;;;;;24.40;20.73;;;;;;;9.26;86.08;93020.59;5109951;28;20184;-71
2023/04/09 06:05:29;;;;;;;26.03;19.87;;;;;;;9.54;84.19;93022.69;5110548;27;20220;-71
2023/04/09 06:07:55;;;;;;;23.57;19.83;;;;;;;9.57;83.83;93022.16;5109997;28;20188;-70
2023/04/09 06:10:20;;;;;;;22.60;20.13;;;;;;;9.83;82.46;93028.91;5107443;27;20219;-69
2023/04/09 06:12:46;;;;;;;22.83;19.57;;;;;;;9.91;83.13;93025.75;5110046;28;20218;-69
2023/04/09 06:15:11;;;;;;;26.60;19.93;;;;;;;9.82;82.52;93029.16;5110444;28;20256;-72
2023/04/09 06:17:37;;;;;;;25.03;19.77;;;;;;;9.90;81.13;93032.00;5109786;28;20208;-72
2023/04/09 06:20:02;;;;;;;24.33;19.43;;;;;;;9.89;80.16;93022.63;5108234;28;20235;-70
2023/04/09 06:22:28;;;;;;;25.23;21.43;;;;;;;9.97;80.77;93024.69;5107233;28;20203;-72
2023/04/09 06:24:53;;;;;;;27.90;21.03;;;;;;;10.14;79.46;93011.38;5111500;28;20240;-71
2023/04/09 06:27:20;;;;;;;23.03;20.53;;;;;;;10.28;79.06;93023.59;5109171;28;20246;-72
2023/04/09 06:29:46;;;;;;;19.73;17.63;;;;;;;10.08;78.56;93028.88;5110578;28;20232;-71
2023/04/09 06:32:11;;;;;;;22.20;18.50;;;;;;;9.91;79.49;93033.59;5110416;28;20212;-70
2023/04/09 06:34:37;;;;;;;23.90;19.47;;;;;;;10.40;78.74;93029.28;5109863;28;21734;-72
2023/04/09 06:37:02;;;;;;;22.13;19.60;;;;;;;10.62;78.60;93027.13;5109867;28;20212;-71
2023/04/09 06:39:28;;;;;;;24.53;16.77;;;;;;;10.70;76.46;93034.41;5107377;28;20188;-69
2023/04/09 06:41:53;;;;;;;20.40;18.30;;;;;;;10.44;76.99;93030.34;5110690;28;20192;-68
2023/04/09 06:44:20;;;;;;;27.43;21.23;;;;;;;10.55;79.02;93024.00;5109855;27;20203;-70
2023/04/09 06:46:45;;;;;;;20.67;18.63;;;;;;;11.22;74.20;93044.31;5108915;28;20193;-67
2023/04/09 06:49:11;;;;;;;19.80;17.67;;;;;;;10.91;75.98;93043.69;5109749;28;20220;-68
2023/04/09 06:51:36;;;;;;;19.83;17.73;;;;;;;11.09;74.79;93024.78;5108958;28;20735;-68
2023/04/09 06:54:02;;;;;;;20.53;18.40;;;;;;;11.55;71.62;93048.00;5110014;28;20204;-68
2023/04/09 06:56:27;;;;;;;18.90;17.00;;;;;;;11.54;73.22;93043.81;5107832;28;20266;-68
2023/04/09 06:58:52;;;;;;;20.13;17.20;;;;;;;11.98;70.57;93047.13;5109537;28;20226;-68
2023/04/09 07:01:18;;;;;;;17.87;15.97;;;;;;;12.22;67.66;93038.25;5108915;28;20244;-69
2023/04/09 07:03:44;;;;;;;20.90;16.13;;;;;;;12.14;67.40;92996.22;5110537;28;20180;-73
2023/04/09 07:06:09;;;;;;;17.97;15.97;;;;;;;12.49;66.14;93037.72;5108415;28;20212;-73
2023/04/09 07:08:35;;;;;;;18.23;16.40;;;;;;;12.40;65.88;93032.31;5110487;28;20200;-73
2023/04/09 07:11:00;;;;;;;19.17;17.17;;;;;;;12.24;67.02;93041.38;5111809;27;20217;-73
2023/04/09 07:13:26;;;;;;;18.40;16.40;;;;;;;12.08;68.41;93047.03;5111031;28;20180;-74
2023/04/09 07:15:51;;;;;;;18.60;16.80;;;;;;;11.81;69.31;93047.56;5110756;28;20769;-74
2023/04/09 07:18:16;;;;;;;18.27;16.40;;;;;;;11.83;70.17;93047.28;5110227;28;20202;-74
2023/04/09 07:20:42;;;;;;;16.57;15.07;;;;;;;11.81;68.31;93041.53;5109901;28;20234;-74
2023/04/09 07:23:07;;;;;;;18.80;16.90;;;;;;;11.44;71.01;93056.97;5110853;28;20192;-73
2023/04/09 07:25:33;;;;;;;19.23;16.57;;;;;;;11.77;67.94;93049.16;5109765;27;20232;-73
2023/04/09 07:27:58;;;;;;;16.83;15.13;;;;;;;11.39;67.17;93052.56;5110848;28;20212;-74
2023/04/09 07:30:24;;;;;;;17.67;15.87;;;;;;;11.56;69.32;93057.41;5108686;28;20251;-73
2023/04/09 07:32:50;;;;;;;18.13;16.23;;;;;;;11.65;68.20;93053.16;5108929;28;20210;-74
2023/04/09 07:35:17;;;;;;;17.07;15.40;;;;;;;11.78;66.88;93042.84;5109230;27;20241;-73
2023/04/09 07:37:42;;;;;;;16.37;14.77;;;;;;;12.03;67.08;93052.34;5109174;28;20218;-74
2023/04/09 07:40:08;;;;;;;17.17;15.57;;;;;;;11.79;68.76;93064.56;5107699;28;20222;-73
2023/04/09 07:42:36;;;;;;;19.50;17.40;;;;;;;11.46;70.48;93062.69;5112755;28;20221;-74
2023/04/09 07:45:02;;;;;;;18.40;16.67;;;;;;;11.16;72.15;93061.84;5109813;27;20225;-74
2023/04/09 07:47:28;;;;;;;18.17;16.40;;;;;;;11.14;72.05;93056.09;5110483;28;20194;-74
2023/04/09 07:49:53;;;;;;;20.47;15.07;;;;;;;10.76;73.02;93062.06;5109698;28;20261;-74
2023/04/09 07:52:19;;;;;;;17.27;15.80;;;;;;;10.91;74.00;93063.81;5110978;28;20188;-74
2023/04/09 07:54:44;;;;;;;17.17;15.47;;;;;;;10.55;73.83;93044.88;5109437;28;20239;-73
2023/04/09 07:57:10;;;;;;;17.53;15.77;;;;;;;10.99;73.61;93066.63;5110891;28;20240;-73
2023/04/09 07:59:35;;;;;;;15.97;14.53;;;;;;;11.00;72.14;93049.91;5110356;28;20200;-74
2023/04/09 08:02:01;;;;;;;18.03;16.17;;;;;;;11.13;73.00;93062.38;5109996;28;20222;-74
2023/04/09 08:04:26;;;;;;;16.63;14.90;;;;;;;11.32;71.96;93071.16;5109136;28;20264;-74
2023/04/09 08:06:52;;;;;;;16.03;14.43;;;;;;;11.03;72.93;93072.91;5110133;28;20183;-74
2023/04/09 08:09:21;;;;;;;16.60;15.00;;;;;;;11.11;72.22;93080.16;5109628;28;20185;-74
2023/04/09 08:11:47;;;;;;;17.03;15.53;;;;;;;11.11;71.70;93082.00;5109828;28;20175;-74
2023/04/09 08:14:14;;;;;;;18.17;16.43;;;;;;;11.12;72.09;93076.50;5109093;28;20201;-73
2023/04/09 08:16:41;;;;;;;16.50;14.97;;;;;;;11.24;71.80;93084.00;5111276;27;20222;-73
2023/04/09 08:19:08;;;;;;;15.30;14.00;;;;;;;10.98;71.80;93075.53;5109672;28;20183;-74
2023/04/09 08:21:42;;;;;;;15.40;13.90;;;;;;;10.91;71.87;93067.19;5109984;27;20219;-74
2023/04/09 08:24:10;;;;;;;16.93;15.23;;;;;;;10.99;72.46;93066.63;5109523;28;20246;-74
2023/04/09 08:26:36;;;;;;;17.37;15.67;;;;;;;11.23;72.54;93072.78;5108990;28;20246;-73
2023/04/09 08:29:01;;;;;;;17.07;15.47;;;;;;;11.56;71.43;93070.47;5109105;28;20205;-74
2023/04/09 08:31:27;;;;;;;17.10;15.37;;;;;;;11.21;71.59;93074.88;5110053;28;20259;-74
2023/04/09 08:33:52;;;;;;;17.73;16.00;;;;;;;11.38;71.05;93076.38;5109271;28;20203;-73
2023/04/09 08:36:18;;;;;;;17.63;15.93;;;;;;;10.94;70.91;93052.84;5108532;28;20224;-73
2023/04/09 08:38:45;;;;;;;16.20;14.63;;;;;;;10.79;71.66;93060.72;5109221;28;20184;-74
2023/04/09 08:41:17;;;;;;;18.07;16.37;;;;;;;10.66;73.17;93066.53;5108740;28;20221;-73
2023/04/09 08:43:45;;;;;;;16.77;15.27;;;;;;;10.53;73.71;93052.22;5109012;28;20245;-73
2023/04/09 08:46:11;;;;;;;20.57;17.43;;;;;;;10.99;73.71;93071.88;5109304;28;20243;-73
2023/04/09 08:48:41;;;;;;;18.23;16.43;;;;;;;10.75;73.53;93049.25;5111393;28;20196;-73
2023/04/09 08:51:06;;;;;;;19.17;17.20;;;;;;;10.82;73.52;93066.19;5107991;28;20228;-73
2023/04/09 08:53:33;;;;;;;21.00;16.90;;;;;;;10.94;73.80;93074.50;5109666;28;20205;-73
2023/04/09 08:55:59;;;;;;;18.83;16.83;;;;;;;11.03;73.09;93052.00;5108475;27;20236;-73
2023/04/09 08:58:24;;;;;;;18.37;16.50;;;;;;;10.91;73.69;93056.00;5110108;28;20181;-73
2023/04/09 09:00:50;;;;;;;19.40;17.37;;;;;;;10.80;73.72;93050.00;5108342;28;20237;-73
2023/04/09 09:03:16;;;;;;;19.13;17.13;;;;;;;10.87;73.90;93042.69;5108781;28;20212;-74
2023/04/09 09:05:44;;;;;;;17.93;15.53;;;;;;;10.74;73.18;93058.91;5109250;28;20233;-73
2023/04/09 09:08:22;;;;;;;17.33;15.43;;;;;;;10.78;73.69;93061.78;5107815;28;20192;-73
2023/04/09 09:10:48;;;;;;;18.87;16.97;;;;;;;10.91;74.91;93046.31;5108005;28;20214;-74
2023/04/09 09:13:17;;;;;;;16.80;15.10;;;;;;;10.91;73.12;93059.34;5109311;28;20199;-73
2023/04/09 09:15:45;;;;;;;18.37;16.67;;;;;;;10.88;73.65;93054.69;5108558;28;20220;-74
2023/04/09 09:18:10;;;;;;;19.00;17.00;;;;;;;11.06;72.95;93051.47;5108525;28;20192;-74
2023/04/09 09:20:36;;;;;;;16.33;14.83;;;;;;;11.01;72.30;93059.31;5109626;28;20227;-74
2023/04/09 09:23:02;;;;;;;17.00;15.20;;;;;;;10.90;73.15;93057.81;5110258;28;20239;-74
2023/04/09 09:25:29;;;;;;;16.40;14.77;;;;;;;11.13;71.66;93064.19;5108272;28;20224;-73
2023/04/09 09:28:06;;;;;;;15.97;14.47;;;;;;;11.24;70.74;93057.88;5108337;28;20211;-74
2023/04/09 09:30:33;;;;;;;16.90;15.20;;;;;;;11.09;71.43;93045.69;5108351;27;20295;-74
2023/04/09 09:33:09;;;;;;;16.87;15.17;;;;;;;10.89;71.38;93042.41;5109521;28;20176;-74
2023/04/09 09:35:48;;;;;;;18.87;16.93;;;;;;;11.04;72.10;93045.72;5112978;28;20219;-73
2023/04/09 09:38:15;;;;;;;17.20;15.50;;;;;;;11.13;71.50;93044.09;5112020;28;20213;-73
2023/04/09 09:40:40;;;;;;;16.53;14.93;;;;;;;11.18;71.47;93038.84;5112472;28;20520;-74
2023/04/09 09:43:06;;;;;;;17.60;16.00;;;;;;;10.96;72.91;93021.97;5111836;28;20256;-70
2023/04/09 09:45:32;;;;;;;17.57;15.97;;;;;;;11.03;71.98;93036.31;5110700;28;20226;-70
2023/04/09 09:47:57;;;;;;;18.13;16.53;;;;;;;10.89;72.67;93037.97;5113036;28;20177;-70
2023/04/09 09:50:24;;;;;;;19.07;17.17;;;;;;;11.04;73.03;92997.91;5111411;27;20228;-71
2023/04/09 09:52:57;;;;;;;17.20;15.60;;;;;;;10.18;70.88;92898.38;5110729;28;20176;-71
2023/04/09 09:55:26;;;;;;;17.43;15.63;;;;;;;11.03;72.00;93022.47;5111413;28;20289;-72
2023/04/09 09:57:53;;;;;;;15.90;14.40;;;;;;;10.93;71.04;93019.91;5111140;28;20237;-72
2023/04/09 10:00:24;;;;;;;18.10;16.50;;;;;;;10.97;71.91;93006.03;5111877;28;20235;-71
2023/04/09 10:02:58;;;;;;;17.50;15.80;;;;;;;11.41;71.11;93042.59;5112162;28;20187;-71
2023/04/09 10:05:26;;;;;;;18.33;16.37;;;;;;;11.24;68.99;93032.53;5109990;28;20236;-71
2023/04/09 10:07:59;;;;;;;17.53;15.93;;;;;;;11.16;70.17;93033.09;5111644;28;20189;-73
2023/04/09 10:10:26;;;;;;;17.00;15.60;;;;;;;11.14;70.04;93027.34;5110292;27;20217;-72
2023/04/09 10:12:51;;;;;;;16.20;14.70;;;;;;;11.24;68.47;93011.63;5110791;28;20193;-72
2023/04/09 10:15:20;;;;;;;16.03;14.47;;;;;;;11.04;67.77;92996.06;5111454;28;20224;-71
2023/04/09 10:17:45;;;;;;;17.77;16.17;;;;;;;11.29;68.37;93035.09;5111972;28;20202;-72
2023/04/09 10:20:25;;;;;;;16.70;15.20;;;;;;;11.51;66.37;93026.84;5110830;28;20238;-72
2023/04/09 10:22:52;;;;;;;17.43;15.63;;;;;;;11.44;67.69;93010.66;5112612;28;20193;-72
2023/04/09 10:25:18;;;;;;;17.20;15.53;;;;;;;11.61;66.80;93007.69;5111106;28;20239;-72
2023/04/09 10:27:45;;;;;;;16.83;15.33;;;;;;;11.76;68.58;93023.25;5109894;28;21203;-72
2023/04/09 10:30:30;;;;;;;16.77;15.33;;;;;;;11.56;65.46;93024.19;5107486;28;20229;-69
2023/04/09 10:33:10;;;;;;;15.63;14.43;;;;;;;11.90;63.18;93024.19;5109130;28;20237;-69
2023/04/09 10:35:35;;;;;;;15.73;14.33;;;;;;;12.39;62.17;93027.38;5109899;27;20227;-70
2023/04/09 10:38:01;;;;;;;15.80;14.30;;;;;;;12.71;59.71;93024.88;5111113;28;20910;-70
2023/04/09 10:40:27;;;;;;;16.43;14.90;;;;;;;12.82;60.91;93026.31;5109824;28;20302;-70
2023/04/09 10:42:55;;;;;;;14.87;13.67;;;;;;;12.74;58.63;93016.47;5112463;28;20198;-70
2023/04/09 10:45:20;;;;;;;15.53;14.23;;;;;;;12.96;59.25;93014.06;5110110;28;20330;-69
2023/04/09 10:47:50;;;;;;;15.73;14.43;;;;;;;12.79;59.89;93011.16;5111626;28;20192;-69
2023/04/09 10:50:29;;;;;;;14.57;13.37;;;;;;;12.82;58.88;93010.59;5110412;28;20231;-69
2023/04/09 10:52:57;;;;;;;14.57;13.37;;;;;;;12.48;60.90;93015.22;5113017;28;20191;-70
2023/04/09 10:55:46;;;;;;;15.20;14.00;;;;;;;13.28;56.98;93008.94;5109766;27;20251;-70
2023/04/09 10:58:12;;;;;;;14.80;13.50;;;;;;;12.86;59.32;92988.00;5110239;28;20207;-71
2023/04/09 11:00:39;;;;;;;15.27;13.63;;;;;;;12.90;61.14;92996.88;5110675;28;20231;-70
2023/04/09 11:03:07;;;;;;;14.47;13.20;;;;;;;13.46;58.36;93000.28;5109730;28;20200;-69
2023/04/09 11:05:38;;;;;;;14.43;13.37;;;;;;;14.04;56.64;93001.38;5110142;28;20220;-71
2023/04/09 11:08:04;;;;;;;14.23;13.03;;;;;;;14.14;55.70;92997.81;5111433;28;20230;-71
2023/04/09 11:10:31;;;;;;;16.67;15.07;;;;;;;13.94;56.30;93001.59;5110251;28;20237;-71
2023/04/09 11:12:57;;;;;;;15.87;14.53;;;;;;;13.74;58.57;92994.03;5110151;28;20198;-71
2023/04/09 11:15:22;;;;;;;15.97;14.67;;;;;;;13.75;57.39;92992.97;5110107;28;20224;-71
2023/04/09 11:17:48;;;;;;;13.57;12.37;;;;;;;14.04;54.39;92998.75;5110697;28;20211;-69